Volodymyr-Volyns'Kyi, Ukraine
Current Conditions -  °F | °C
As of 8:30 AM on Wednesday 26 Nov 2014 (Local Time) from UKLL Reporting Station
Haze Haze  
Wind Chill: 18°   Ceiling: 300
Heat Index: 27°   Visibility: 1.2mi
Dew Point: 27°   Wind: 9mph
Humidity: 100%   Direction: 130°SE
Pressure: 30.3"   Gusts: NA
Location:  50.83°N, 24.32°E
Report Text: UKLL 260530Z 13004MPS 2000 BR OVC003 M03/M03 Q1026 13CLRD80 NOSIG
Loading
Personal Weather Stations






























Interactive Weather Map New forecast layout! Learn more

10-Day Weather Forecast

Advertisements
Track Severe Weather on mobile